sensor_id;sensor_type;location;lat;lon;timestamp;P1;durP1;ratioP1;P2;durP2;ratioP2
52180;SDS011;38158;53.338;6.514;2022-11-18T00:02:04;16.48;;;12.35;;
52180;SDS011;38158;53.338;6.514;2022-11-18T00:04:29;16.55;;;12.80;;
52180;SDS011;38158;53.338;6.514;2022-11-18T00:06:55;16.30;;;12.00;;
52180;SDS011;38158;53.338;6.514;2022-11-18T00:09:21;18.58;;;12.95;;
52180;SDS011;38158;53.338;6.514;2022-11-18T00:11:46;18.33;;;12.75;;
52180;SDS011;38158;53.338;6.514;2022-11-18T00:14:31;16.40;;;11.35;;
52180;SDS011;38158;53.338;6.514;2022-11-18T00:17:00;16.27;;;11.60;;
52180;SDS011;38158;53.338;6.514;2022-11-18T00:19:28;15.43;;;11.82;;
52180;SDS011;38158;53.338;6.514;2022-11-18T00:21:56;15.15;;;11.00;;
52180;SDS011;38158;53.338;6.514;2022-11-18T00:24:22;15.35;;;11.73;;
52180;SDS011;38158;53.338;6.514;2022-11-18T00:26:49;15.80;;;11.48;;
52180;SDS011;38158;53.338;6.514;2022-11-18T00:29:15;15.82;;;10.57;;
52180;SDS011;38158;53.338;6.514;2022-11-18T00:31:42;15.95;;;11.90;;
52180;SDS011;38158;53.338;6.514;2022-11-18T00:34:09;17.70;;;12.30;;
52180;SDS011;38158;53.338;6.514;2022-11-18T00:36:37;14.95;;;11.45;;
52180;SDS011;38158;53.338;6.514;2022-11-18T00:39:03;14.30;;;10.45;;
52180;SDS011;38158;53.338;6.514;2022-11-18T00:41:29;15.68;;;10.05;;
52180;SDS011;38158;53.338;6.514;2022-11-18T00:44:15;17.83;;;11.98;;
52180;SDS011;38158;53.338;6.514;2022-11-18T00:46:40;17.38;;;12.70;;
52180;SDS011;38158;53.338;6.514;2022-11-18T00:49:07;19.92;;;13.15;;
52180;SDS011;38158;53.338;6.514;2022-11-18T00:51:33;16.50;;;13.02;;
52180;SDS011;38158;53.338;6.514;2022-11-18T00:53:58;17.95;;;13.18;;
52180;SDS011;38158;53.338;6.514;2022-11-18T00:56:24;19.88;;;14.02;;
52180;SDS011;38158;53.338;6.514;2022-11-18T00:58:49;20.98;;;14.32;;
52180;SDS011;38158;53.338;6.514;2022-11-18T01:01:15;20.48;;;13.95;;
52180;SDS011;38158;53.338;6.514;2022-11-18T01:03:41;18.92;;;13.55;;
52180;SDS011;38158;53.338;6.514;2022-11-18T01:06:06;19.38;;;13.93;;
52180;SDS011;38158;53.338;6.514;2022-11-18T01:08:32;20.65;;;15.40;;
52180;SDS011;38158;53.338;6.514;2022-11-18T01:10:58;22.77;;;15.32;;
52180;SDS011;38158;53.338;6.514;2022-11-18T01:13:44;23.48;;;15.50;;
52180;SDS011;38158;53.338;6.514;2022-11-18T01:16:10;21.02;;;15.50;;
52180;SDS011;38158;53.338;6.514;2022-11-18T01:18:35;21.30;;;16.15;;
52180;SDS011;38158;53.338;6.514;2022-11-18T01:21:01;24.70;;;14.73;;
52180;SDS011;38158;53.338;6.514;2022-11-18T01:23:27;23.55;;;16.40;;
52180;SDS011;38158;53.338;6.514;2022-11-18T01:25:53;25.42;;;16.73;;
52180;SDS011;38158;53.338;6.514;2022-11-18T01:28:19;25.58;;;17.05;;
52180;SDS011;38158;53.338;6.514;2022-11-18T01:30:45;26.58;;;17.88;;
52180;SDS011;38158;53.338;6.514;2022-11-18T01:33:11;26.65;;;17.60;;
52180;SDS011;38158;53.338;6.514;2022-11-18T01:35:41;27.23;;;17.90;;
52180;SDS011;38158;53.338;6.514;2022-11-18T01:38:09;27.10;;;17.95;;
52180;SDS011;38158;53.338;6.514;2022-11-18T01:40:36;25.65;;;16.60;;
52180;SDS011;38158;53.338;6.514;2022-11-18T01:43:04;27.55;;;17.13;;
52180;SDS011;38158;53.338;6.514;2022-11-18T01:45:37;26.92;;;17.92;;
52180;SDS011;38158;53.338;6.514;2022-11-18T01:48:09;26.77;;;18.55;;
52180;SDS011;38158;53.338;6.514;2022-11-18T01:50:40;27.83;;;18.35;;
52180;SDS011;38158;53.338;6.514;2022-11-18T01:53:11;29.05;;;16.85;;
52180;SDS011;38158;53.338;6.514;2022-11-18T01:55:51;24.08;;;16.73;;
52180;SDS011;38158;53.338;6.514;2022-11-18T01:58:25;27.75;;;17.63;;
52180;SDS011;38158;53.338;6.514;2022-11-18T02:00:54;25.48;;;15.45;;
52180;SDS011;38158;53.338;6.514;2022-11-18T02:03:20;27.08;;;17.02;;
52180;SDS011;38158;53.338;6.514;2022-11-18T02:05:48;29.15;;;17.80;;
52180;SDS011;38158;53.338;6.514;2022-11-18T02:08:14;29.35;;;18.80;;
52180;SDS011;38158;53.338;6.514;2022-11-18T02:10:43;26.50;;;16.27;;
52180;SDS011;38158;53.338;6.514;2022-11-18T02:13:08;25.77;;;15.77;;
52180;SDS011;38158;53.338;6.514;2022-11-18T02:30:06;30.20;;;17.05;;
52180;SDS011;38158;53.338;6.514;2022-11-18T02:35:12;32.28;;;18.50;;
52180;SDS011;38158;53.338;6.514;2022-11-18T02:37:48;31.88;;;18.40;;
52180;SDS011;38158;53.338;6.514;2022-11-18T02:42:55;28.02;;;17.73;;
52180;SDS011;38158;53.338;6.514;2022-11-18T02:45:26;31.13;;;16.80;;
52180;SDS011;38158;53.338;6.514;2022-11-18T02:47:53;26.70;;;15.90;;
52180;SDS011;38158;53.338;6.514;2022-11-18T02:50:22;30.40;;;17.23;;
52180;SDS011;38158;53.338;6.514;2022-11-18T02:52:52;25.02;;;15.30;;
52180;SDS011;38158;53.338;6.514;2022-11-18T02:55:21;29.75;;;16.52;;
52180;SDS011;38158;53.338;6.514;2022-11-18T02:57:49;29.90;;;16.52;;
52180;SDS011;38158;53.338;6.514;2022-11-18T03:00:16;27.13;;;15.95;;
52180;SDS011;38158;53.338;6.514;2022-11-18T03:02:46;27.42;;;16.02;;
52180;SDS011;38158;53.338;6.514;2022-11-18T03:05:18;28.65;;;15.20;;
52180;SDS011;38158;53.338;6.514;2022-11-18T03:08:09;22.85;;;13.00;;
52180;SDS011;38158;53.338;6.514;2022-11-18T03:10:56;25.63;;;16.73;;
52180;SDS011;38158;53.338;6.514;2022-11-18T03:13:50;27.92;;;15.70;;
52180;SDS011;38158;53.338;6.514;2022-11-18T03:16:36;31.08;;;14.75;;
52180;SDS011;38158;53.338;6.514;2022-11-18T03:19:06;30.92;;;15.57;;
52180;SDS011;38158;53.338;6.514;2022-11-18T03:24:06;24.70;;;14.25;;
52180;SDS011;38158;53.338;6.514;2022-11-18T03:26:46;25.35;;;14.27;;
52180;SDS011;38158;53.338;6.514;2022-11-18T03:29:16;24.65;;;13.55;;
52180;SDS011;38158;53.338;6.514;2022-11-18T03:31:49;24.42;;;14.23;;
52180;SDS011;38158;53.338;6.514;2022-11-18T03:34:48;25.00;;;13.65;;
52180;SDS011;38158;53.338;6.514;2022-11-18T03:37:17;27.45;;;14.50;;
52180;SDS011;38158;53.338;6.514;2022-11-18T03:39:48;26.35;;;15.10;;
52180;SDS011;38158;53.338;6.514;2022-11-18T03:42:37;26.35;;;14.82;;
52180;SDS011;38158;53.338;6.514;2022-11-18T03:45:15;29.00;;;14.73;;
52180;SDS011;38158;53.338;6.514;2022-11-18T03:47:46;23.52;;;13.77;;
52180;SDS011;38158;53.338;6.514;2022-11-18T03:50:39;26.27;;;14.75;;
52180;SDS011;38158;53.338;6.514;2022-11-18T03:53:11;24.45;;;14.35;;
52180;SDS011;38158;53.338;6.514;2022-11-18T03:55:40;24.60;;;14.75;;
52180;SDS011;38158;53.338;6.514;2022-11-18T04:00:49;25.42;;;15.05;;
52180;SDS011;38158;53.338;6.514;2022-11-18T04:03:18;23.50;;;12.85;;
52180;SDS011;38158;53.338;6.514;2022-11-18T04:05:43;23.70;;;13.90;;
52180;SDS011;38158;53.338;6.514;2022-11-18T04:08:19;20.73;;;13.60;;
52180;SDS011;38158;53.338;6.514;2022-11-18T04:15:44;26.20;;;15.70;;
52180;SDS011;38158;53.338;6.514;2022-11-18T04:18:10;24.85;;;14.02;;
52180;SDS011;38158;53.338;6.514;2022-11-18T04:20:36;31.33;;;14.75;;
52180;SDS011;38158;53.338;6.514;2022-11-18T04:23:03;27.10;;;13.90;;
52180;SDS011;38158;53.338;6.514;2022-11-18T04:25:29;24.67;;;13.75;;
52180;SDS011;38158;53.338;6.514;2022-11-18T04:27:55;22.75;;;13.05;;
52180;SDS011;38158;53.338;6.514;2022-11-18T04:30:21;23.23;;;14.25;;
52180;SDS011;38158;53.338;6.514;2022-11-18T04:32:47;26.92;;;15.10;;
52180;SDS011;38158;53.338;6.514;2022-11-18T04:35:13;23.38;;;14.23;;
52180;SDS011;38158;53.338;6.514;2022-11-18T04:37:39;22.15;;;13.43;;
52180;SDS011;38158;53.338;6.514;2022-11-18T04:40:05;23.83;;;13.35;;
52180;SDS011;38158;53.338;6.514;2022-11-18T04:42:31;26.10;;;14.35;;
52180;SDS011;38158;53.338;6.514;2022-11-18T04:44:57;25.27;;;14.32;;
52180;SDS011;38158;53.338;6.514;2022-11-18T04:47:22;25.00;;;12.98;;
52180;SDS011;38158;53.338;6.514;2022-11-18T04:49:48;20.35;;;12.27;;
52180;SDS011;38158;53.338;6.514;2022-11-18T04:52:14;20.50;;;12.25;;
52180;SDS011;38158;53.338;6.514;2022-11-18T04:54:40;21.50;;;12.52;;
52180;SDS011;38158;53.338;6.514;2022-11-18T04:57:05;20.30;;;13.43;;
52180;SDS011;38158;53.338;6.514;2022-11-18T04:59:31;29.33;;;13.88;;
52180;SDS011;38158;53.338;6.514;2022-11-18T05:01:57;21.33;;;12.48;;
52180;SDS011;38158;53.338;6.514;2022-11-18T05:04:25;19.33;;;12.80;;
52180;SDS011;38158;53.338;6.514;2022-11-18T05:06:55;20.65;;;12.60;;
52180;SDS011;38158;53.338;6.514;2022-11-18T05:09:22;20.02;;;11.82;;
52180;SDS011;38158;53.338;6.514;2022-11-18T05:11:48;22.20;;;12.52;;
52180;SDS011;38158;53.338;6.514;2022-11-18T05:14:32;21.30;;;12.15;;
52180;SDS011;38158;53.338;6.514;2022-11-18T05:16:59;22.63;;;12.77;;
52180;SDS011;38158;53.338;6.514;2022-11-18T05:19:26;22.08;;;13.45;;
52180;SDS011;38158;53.338;6.514;2022-11-18T05:21:52;22.55;;;13.65;;
52180;SDS011;38158;53.338;6.514;2022-11-18T05:24:18;22.27;;;13.27;;
52180;SDS011;38158;53.338;6.514;2022-11-18T05:26:44;23.63;;;13.13;;
52180;SDS011;38158;53.338;6.514;2022-11-18T05:29:10;20.33;;;12.40;;
52180;SDS011;38158;53.338;6.514;2022-11-18T05:31:37;23.33;;;13.20;;
52180;SDS011;38158;53.338;6.514;2022-11-18T05:34:02;23.55;;;13.43;;
52180;SDS011;38158;53.338;6.514;2022-11-18T05:36:28;21.73;;;12.73;;
52180;SDS011;38158;53.338;6.514;2022-11-18T05:38:56;25.17;;;13.45;;
52180;SDS011;38158;53.338;6.514;2022-11-18T05:41:23;22.30;;;12.40;;
52180;SDS011;38158;53.338;6.514;2022-11-18T05:44:07;25.77;;;13.80;;
52180;SDS011;38158;53.338;6.514;2022-11-18T05:46:33;25.55;;;14.30;;
52180;SDS011;38158;53.338;6.514;2022-11-18T05:48:58;21.58;;;12.88;;
52180;SDS011;38158;53.338;6.514;2022-11-18T05:51:24;25.50;;;13.10;;
52180;SDS011;38158;53.338;6.514;2022-11-18T05:53:50;22.85;;;12.88;;
52180;SDS011;38158;53.338;6.514;2022-11-18T05:56:32;23.70;;;11.70;;
52180;SDS011;38158;53.338;6.514;2022-11-18T05:59:01;23.73;;;12.90;;
52180;SDS011;38158;53.338;6.514;2022-11-18T06:01:31;23.90;;;13.23;;
52180;SDS011;38158;53.338;6.514;2022-11-18T06:04:20;24.75;;;13.48;;
52180;SDS011;38158;53.338;6.514;2022-11-18T06:06:53;23.70;;;13.07;;
52180;SDS011;38158;53.338;6.514;2022-11-18T06:09:23;25.38;;;12.98;;
52180;SDS011;38158;53.338;6.514;2022-11-18T06:11:53;25.33;;;13.75;;
52180;SDS011;38158;53.338;6.514;2022-11-18T06:14:21;30.45;;;14.90;;
52180;SDS011;38158;53.338;6.514;2022-11-18T06:16:53;25.92;;;13.93;;
52180;SDS011;38158;53.338;6.514;2022-11-18T06:19:22;24.67;;;13.65;;
52180;SDS011;38158;53.338;6.514;2022-11-18T06:21:48;26.23;;;12.65;;
52180;SDS011;38158;53.338;6.514;2022-11-18T06:24:14;26.30;;;13.30;;
52180;SDS011;38158;53.338;6.514;2022-11-18T06:26:41;26.02;;;14.20;;
52180;SDS011;38158;53.338;6.514;2022-11-18T06:29:07;23.60;;;11.73;;
52180;SDS011;38158;53.338;6.514;2022-11-18T06:31:35;26.33;;;14.48;;
52180;SDS011;38158;53.338;6.514;2022-11-18T06:34:00;27.10;;;14.32;;
52180;SDS011;38158;53.338;6.514;2022-11-18T06:36:26;27.58;;;13.70;;
52180;SDS011;38158;53.338;6.514;2022-11-18T06:38:52;26.77;;;12.70;;
52180;SDS011;38158;53.338;6.514;2022-11-18T06:41:17;28.02;;;14.43;;
52180;SDS011;38158;53.338;6.514;2022-11-18T06:43:43;31.27;;;15.43;;
52180;SDS011;38158;53.338;6.514;2022-11-18T06:46:15;26.05;;;13.57;;
52180;SDS011;38158;53.338;6.514;2022-11-18T06:49:00;29.27;;;14.77;;
52180;SDS011;38158;53.338;6.514;2022-11-18T06:51:26;24.27;;;11.77;;
52180;SDS011;38158;53.338;6.514;2022-11-18T06:53:52;29.60;;;15.75;;
52180;SDS011;38158;53.338;6.514;2022-11-18T06:56:19;37.45;;;16.67;;
52180;SDS011;38158;53.338;6.514;2022-11-18T07:01:15;32.22;;;15.10;;
52180;SDS011;38158;53.338;6.514;2022-11-18T07:03:42;30.38;;;15.27;;
52180;SDS011;38158;53.338;6.514;2022-11-18T07:06:10;28.65;;;15.07;;
52180;SDS011;38158;53.338;6.514;2022-11-18T07:08:37;31.83;;;15.77;;
52180;SDS011;38158;53.338;6.514;2022-11-18T07:11:05;33.92;;;15.38;;
52180;SDS011;38158;53.338;6.514;2022-11-18T07:13:32;32.47;;;14.27;;
52180;SDS011;38158;53.338;6.514;2022-11-18T07:16:40;23.23;;;12.57;;
52180;SDS011;38158;53.338;6.514;2022-11-18T07:18:49;30.33;;;14.20;;
52180;SDS011;38158;53.338;6.514;2022-11-18T07:21:16;34.65;;;14.07;;
52180;SDS011;38158;53.338;6.514;2022-11-18T07:23:46;27.33;;;14.10;;
52180;SDS011;38158;53.338;6.514;2022-11-18T07:26:12;28.58;;;15.65;;
52180;SDS011;38158;53.338;6.514;2022-11-18T07:28:39;32.95;;;14.70;;
52180;SDS011;38158;53.338;6.514;2022-11-18T07:33:32;30.67;;;15.52;;
52180;SDS011;38158;53.338;6.514;2022-11-18T07:36:03;30.48;;;13.90;;
52180;SDS011;38158;53.338;6.514;2022-11-18T07:38:40;27.48;;;13.27;;
52180;SDS011;38158;53.338;6.514;2022-11-18T07:41:11;31.38;;;13.48;;
52180;SDS011;38158;53.338;6.514;2022-11-18T07:43:38;29.60;;;14.00;;
52180;SDS011;38158;53.338;6.514;2022-11-18T07:46:12;30.40;;;13.13;;
52180;SDS011;38158;53.338;6.514;2022-11-18T07:48:38;29.27;;;12.88;;
52180;SDS011;38158;53.338;6.514;2022-11-18T07:51:05;33.25;;;16.10;;
52180;SDS011;38158;53.338;6.514;2022-11-18T07:53:31;30.42;;;14.77;;
52180;SDS011;38158;53.338;6.514;2022-11-18T07:55:57;26.98;;;13.88;;
52180;SDS011;38158;53.338;6.514;2022-11-18T07:58:23;28.52;;;13.82;;
52180;SDS011;38158;53.338;6.514;2022-11-18T08:00:49;27.25;;;14.63;;
52180;SDS011;38158;53.338;6.514;2022-11-18T08:03:15;32.25;;;14.68;;
52180;SDS011;38158;53.338;6.514;2022-11-18T08:05:41;31.02;;;15.32;;
52180;SDS011;38158;53.338;6.514;2022-11-18T08:08:06;26.98;;;14.30;;
52180;SDS011;38158;53.338;6.514;2022-11-18T08:10:32;25.20;;;13.27;;
52180;SDS011;38158;53.338;6.514;2022-11-18T08:12:58;28.08;;;13.65;;
52180;SDS011;38158;53.338;6.514;2022-11-18T08:15:24;24.95;;;14.13;;
52180;SDS011;38158;53.338;6.514;2022-11-18T08:17:50;23.98;;;12.45;;
52180;SDS011;38158;53.338;6.514;2022-11-18T08:20:15;26.83;;;12.95;;
52180;SDS011;38158;53.338;6.514;2022-11-18T08:22:41;27.55;;;12.85;;
52180;SDS011;38158;53.338;6.514;2022-11-18T08:25:07;26.52;;;13.52;;
52180;SDS011;38158;53.338;6.514;2022-11-18T08:27:33;23.17;;;12.57;;
52180;SDS011;38158;53.338;6.514;2022-11-18T08:29:59;31.35;;;13.77;;
52180;SDS011;38158;53.338;6.514;2022-11-18T08:32:25;23.77;;;12.10;;
52180;SDS011;38158;53.338;6.514;2022-11-18T08:34:50;25.85;;;13.18;;
52180;SDS011;38158;53.338;6.514;2022-11-18T08:37:16;25.27;;;12.43;;
52180;SDS011;38158;53.338;6.514;2022-11-18T08:39:42;26.80;;;13.35;;
52180;SDS011;38158;53.338;6.514;2022-11-18T08:42:08;27.67;;;12.90;;
52180;SDS011;38158;53.338;6.514;2022-11-18T08:44:34;26.42;;;13.90;;
52180;SDS011;38158;53.338;6.514;2022-11-18T08:47:00;23.42;;;12.50;;
52180;SDS011;38158;53.338;6.514;2022-11-18T08:49:26;27.50;;;13.65;;
52180;SDS011;38158;53.338;6.514;2022-11-18T08:51:52;26.02;;;14.63;;
52180;SDS011;38158;53.338;6.514;2022-11-18T08:54:18;26.27;;;13.52;;
52180;SDS011;38158;53.338;6.514;2022-11-18T08:56:44;22.13;;;12.68;;
52180;SDS011;38158;53.338;6.514;2022-11-18T08:59:10;25.33;;;12.38;;
52180;SDS011;38158;53.338;6.514;2022-11-18T09:01:36;23.98;;;12.80;;
52180;SDS011;38158;53.338;6.514;2022-11-18T09:04:02;23.20;;;12.90;;
52180;SDS011;38158;53.338;6.514;2022-11-18T09:06:28;22.38;;;13.10;;
52180;SDS011;38158;53.338;6.514;2022-11-18T09:08:54;25.85;;;12.88;;
52180;SDS011;38158;53.338;6.514;2022-11-18T09:11:21;25.42;;;13.05;;
52180;SDS011;38158;53.338;6.514;2022-11-18T09:13:54;25.25;;;13.13;;
52180;SDS011;38158;53.338;6.514;2022-11-18T09:16:22;28.65;;;13.15;;
52180;SDS011;38158;53.338;6.514;2022-11-18T09:18:52;25.00;;;12.40;;
52180;SDS011;38158;53.338;6.514;2022-11-18T09:21:19;25.27;;;13.63;;
52180;SDS011;38158;53.338;6.514;2022-11-18T09:23:45;21.95;;;13.32;;
52180;SDS011;38158;53.338;6.514;2022-11-18T09:26:12;25.42;;;13.80;;
52180;SDS011;38158;53.338;6.514;2022-11-18T09:28:39;27.00;;;12.60;;
52180;SDS011;38158;53.338;6.514;2022-11-18T09:31:06;25.05;;;13.43;;
52180;SDS011;38158;53.338;6.514;2022-11-18T09:33:36;27.45;;;15.20;;
52180;SDS011;38158;53.338;6.514;2022-11-18T09:36:22;22.30;;;12.55;;
52180;SDS011;38158;53.338;6.514;2022-11-18T09:38:48;23.40;;;13.35;;
52180;SDS011;38158;53.338;6.514;2022-11-18T09:49:27;33.05;;;15.23;;
52180;SDS011;38158;53.338;6.514;2022-11-18T09:52:00;35.75;;;16.45;;
52180;SDS011;38158;53.338;6.514;2022-11-18T09:54:38;33.65;;;15.68;;
52180;SDS011;38158;53.338;6.514;2022-11-18T09:57:12;30.95;;;14.18;;
52180;SDS011;38158;53.338;6.514;2022-11-18T09:59:47;28.67;;;14.07;;
52180;SDS011;38158;53.338;6.514;2022-11-18T10:05:20;26.50;;;12.52;;
52180;SDS011;38158;53.338;6.514;2022-11-18T10:19:33;27.50;;;13.52;;
52180;SDS011;38158;53.338;6.514;2022-11-18T10:24:55;24.83;;;13.10;;
52180;SDS011;38158;53.338;6.514;2022-11-18T10:27:26;25.13;;;13.27;;
52180;SDS011;38158;53.338;6.514;2022-11-18T10:30:01;24.15;;;12.90;;
52180;SDS011;38158;53.338;6.514;2022-11-18T10:35:24;24.83;;;13.40;;
52180;SDS011;38158;53.338;6.514;2022-11-18T10:37:58;31.83;;;13.98;;
52180;SDS011;38158;53.338;6.514;2022-11-18T10:40:26;29.83;;;14.55;;
52180;SDS011;38158;53.338;6.514;2022-11-18T10:42:54;29.42;;;16.20;;
52180;SDS011;38158;53.338;6.514;2022-11-18T10:53:25;35.17;;;17.17;;
52180;SDS011;38158;53.338;6.514;2022-11-18T10:56:02;28.60;;;14.45;;
52180;SDS011;38158;53.338;6.514;2022-11-18T10:58:30;30.50;;;15.98;;
52180;SDS011;38158;53.338;6.514;2022-11-18T11:03:39;27.92;;;14.38;;
52180;SDS011;38158;53.338;6.514;2022-11-18T11:06:39;25.13;;;14.02;;
52180;SDS011;38158;53.338;6.514;2022-11-18T11:11:34;32.90;;;15.55;;
52180;SDS011;38158;53.338;6.514;2022-11-18T11:14:14;29.55;;;15.68;;
52180;SDS011;38158;53.338;6.514;2022-11-18T11:17:11;24.35;;;12.65;;
52180;SDS011;38158;53.338;6.514;2022-11-18T11:20:00;29.15;;;15.18;;
52180;SDS011;38158;53.338;6.514;2022-11-18T11:22:31;28.13;;;15.43;;
52180;SDS011;38158;53.338;6.514;2022-11-18T11:24:57;28.27;;;15.77;;
52180;SDS011;38158;53.338;6.514;2022-11-18T11:27:45;31.23;;;15.35;;
52180;SDS011;38158;53.338;6.514;2022-11-18T11:30:34;26.60;;;14.93;;
52180;SDS011;38158;53.338;6.514;2022-11-18T11:35:53;28.77;;;17.17;;
52180;SDS011;38158;53.338;6.514;2022-11-18T11:47:01;29.75;;;15.63;;
52180;SDS011;38158;53.338;6.514;2022-11-18T11:49:54;34.13;;;18.20;;
52180;SDS011;38158;53.338;6.514;2022-11-18T11:52:39;36.35;;;19.48;;
52180;SDS011;38158;53.338;6.514;2022-11-18T11:55:30;29.10;;;16.92;;
52180;SDS011;38158;53.338;6.514;2022-11-18T11:58:08;31.42;;;17.13;;
52180;SDS011;38158;53.338;6.514;2022-11-18T12:00:56;34.10;;;19.08;;
52180;SDS011;38158;53.338;6.514;2022-11-18T12:03:52;33.95;;;18.27;;
52180;SDS011;38158;53.338;6.514;2022-11-18T12:06:24;33.00;;;18.00;;
52180;SDS011;38158;53.338;6.514;2022-11-18T12:11:39;35.13;;;17.88;;
52180;SDS011;38158;53.338;6.514;2022-11-18T12:19:45;37.13;;;19.77;;
52180;SDS011;38158;53.338;6.514;2022-11-18T12:22:11;33.40;;;18.17;;
52180;SDS011;38158;53.338;6.514;2022-11-18T12:24:39;35.10;;;19.60;;
52180;SDS011;38158;53.338;6.514;2022-11-18T12:29:51;27.75;;;16.05;;
52180;SDS011;38158;53.338;6.514;2022-11-18T12:32:26;32.67;;;17.90;;
52180;SDS011;38158;53.338;6.514;2022-11-18T12:37:45;34.20;;;16.13;;
52180;SDS011;38158;53.338;6.514;2022-11-18T12:40:31;31.77;;;17.92;;
52180;SDS011;38158;53.338;6.514;2022-11-18T12:43:00;29.02;;;17.38;;
52180;SDS011;38158;53.338;6.514;2022-11-18T12:45:47;35.25;;;19.75;;
52180;SDS011;38158;53.338;6.514;2022-11-18T12:50:59;39.03;;;21.35;;
52180;SDS011;38158;53.338;6.514;2022-11-18T12:56:27;38.03;;;21.83;;
52180;SDS011;38158;53.338;6.514;2022-11-18T12:59:01;35.50;;;21.35;;
52180;SDS011;38158;53.338;6.514;2022-11-18T13:01:28;37.38;;;20.65;;
52180;SDS011;38158;53.338;6.514;2022-11-18T13:04:06;40.38;;;20.42;;
52180;SDS011;38158;53.338;6.514;2022-11-18T13:09:02;33.42;;;18.52;;
52180;SDS011;38158;53.338;6.514;2022-11-18T13:11:30;31.50;;;17.77;;
52180;SDS011;38158;53.338;6.514;2022-11-18T13:14:15;32.10;;;19.10;;
52180;SDS011;38158;53.338;6.514;2022-11-18T13:17:02;32.88;;;19.13;;
52180;SDS011;38158;53.338;6.514;2022-11-18T13:20:17;34.60;;;19.48;;
52180;SDS011;38158;53.338;6.514;2022-11-18T13:22:55;36.38;;;19.60;;
52180;SDS011;38158;53.338;6.514;2022-11-18T13:25:41;36.45;;;20.45;;
52180;SDS011;38158;53.338;6.514;2022-11-18T13:31:07;30.10;;;17.17;;
52180;SDS011;38158;53.338;6.514;2022-11-18T13:33:43;34.25;;;18.27;;
52180;SDS011;38158;53.338;6.514;2022-11-18T13:36:18;28.90;;;18.33;;
52180;SDS011;38158;53.338;6.514;2022-11-18T13:41:19;38.38;;;19.02;;
52180;SDS011;38158;53.338;6.514;2022-11-18T13:43:48;34.55;;;19.42;;
52180;SDS011;38158;53.338;6.514;2022-11-18T13:46:16;35.33;;;21.50;;
52180;SDS011;38158;53.338;6.514;2022-11-18T13:48:50;34.85;;;19.70;;
52180;SDS011;38158;53.338;6.514;2022-11-18T13:51:19;31.83;;;18.80;;
52180;SDS011;38158;53.338;6.514;2022-11-18T13:53:46;32.35;;;18.00;;
52180;SDS011;38158;53.338;6.514;2022-11-18T13:56:19;34.40;;;19.70;;
52180;SDS011;38158;53.338;6.514;2022-11-18T13:58:54;33.33;;;20.00;;
52180;SDS011;38158;53.338;6.514;2022-11-18T14:01:28;31.40;;;17.70;;
52180;SDS011;38158;53.338;6.514;2022-11-18T14:04:02;33.72;;;19.52;;
52180;SDS011;38158;53.338;6.514;2022-11-18T14:06:37;34.50;;;20.15;;
52180;SDS011;38158;53.338;6.514;2022-11-18T14:11:37;33.60;;;20.13;;
52180;SDS011;38158;53.338;6.514;2022-11-18T14:14:05;33.65;;;19.58;;
52180;SDS011;38158;53.338;6.514;2022-11-18T14:16:33;33.63;;;20.15;;
52180;SDS011;38158;53.338;6.514;2022-11-18T14:19:04;38.80;;;21.02;;
52180;SDS011;38158;53.338;6.514;2022-11-18T14:21:30;33.38;;;19.02;;
52180;SDS011;38158;53.338;6.514;2022-11-18T14:24:02;36.17;;;21.35;;
52180;SDS011;38158;53.338;6.514;2022-11-18T14:26:32;36.83;;;21.00;;
52180;SDS011;38158;53.338;6.514;2022-11-18T14:29:01;37.70;;;21.02;;
52180;SDS011;38158;53.338;6.514;2022-11-18T14:31:38;36.22;;;20.70;;
52180;SDS011;38158;53.338;6.514;2022-11-18T14:36:48;38.67;;;21.05;;
52180;SDS011;38158;53.338;6.514;2022-11-18T14:39:20;38.13;;;21.50;;
52180;SDS011;38158;53.338;6.514;2022-11-18T14:41:47;33.50;;;18.90;;
52180;SDS011;38158;53.338;6.514;2022-11-18T14:44:13;36.22;;;20.40;;
52180;SDS011;38158;53.338;6.514;2022-11-18T14:46:40;34.17;;;20.60;;
52180;SDS011;38158;53.338;6.514;2022-11-18T14:49:15;29.77;;;16.88;;
52180;SDS011;38158;53.338;6.514;2022-11-18T14:51:42;34.15;;;18.85;;
52180;SDS011;38158;53.338;6.514;2022-11-18T14:54:15;31.20;;;18.92;;
52180;SDS011;38158;53.338;6.514;2022-11-18T14:56:42;28.25;;;17.80;;
52180;SDS011;38158;53.338;6.514;2022-11-18T14:59:12;28.90;;;18.48;;
52180;SDS011;38158;53.338;6.514;2022-11-18T15:01:39;31.25;;;18.55;;
52180;SDS011;38158;53.338;6.514;2022-11-18T15:04:06;31.42;;;18.80;;
52180;SDS011;38158;53.338;6.514;2022-11-18T15:06:32;29.20;;;18.20;;
52180;SDS011;38158;53.338;6.514;2022-11-18T15:08:58;27.17;;;17.17;;
52180;SDS011;38158;53.338;6.514;2022-11-18T15:11:23;29.33;;;19.05;;
52180;SDS011;38158;53.338;6.514;2022-11-18T15:13:49;31.20;;;20.15;;
52180;SDS011;38158;53.338;6.514;2022-11-18T15:16:25;26.15;;;17.20;;
52180;SDS011;38158;53.338;6.514;2022-11-18T15:18:53;25.88;;;18.00;;
52180;SDS011;38158;53.338;6.514;2022-11-18T15:21:21;27.30;;;17.55;;
52180;SDS011;38158;53.338;6.514;2022-11-18T15:23:47;30.60;;;18.08;;
52180;SDS011;38158;53.338;6.514;2022-11-18T15:26:33;27.02;;;16.27;;
52180;SDS011;38158;53.338;6.514;2022-11-18T15:29:01;24.33;;;16.50;;
52180;SDS011;38158;53.338;6.514;2022-11-18T15:31:27;25.60;;;16.25;;
52180;SDS011;38158;53.338;6.514;2022-11-18T15:33:53;22.80;;;15.82;;
52180;SDS011;38158;53.338;6.514;2022-11-18T15:36:22;25.33;;;17.27;;
52180;SDS011;38158;53.338;6.514;2022-11-18T15:38:49;23.50;;;16.95;;
52180;SDS011;38158;53.338;6.514;2022-11-18T15:41:17;23.55;;;16.33;;
52180;SDS011;38158;53.338;6.514;2022-11-18T15:43:44;24.48;;;16.83;;
52180;SDS011;38158;53.338;6.514;2022-11-18T15:46:10;26.75;;;17.40;;
52180;SDS011;38158;53.338;6.514;2022-11-18T15:48:36;25.20;;;17.17;;
52180;SDS011;38158;53.338;6.514;2022-11-18T15:51:01;25.30;;;16.60;;
52180;SDS011;38158;53.338;6.514;2022-11-18T15:53:27;27.52;;;16.73;;
52180;SDS011;38158;53.338;6.514;2022-11-18T15:56:12;26.55;;;18.00;;
52180;SDS011;38158;53.338;6.514;2022-11-18T15:58:41;27.83;;;18.90;;
52180;SDS011;38158;53.338;6.514;2022-11-18T16:01:06;26.02;;;17.52;;
52180;SDS011;38158;53.338;6.514;2022-11-18T16:03:32;28.67;;;19.48;;
52180;SDS011;38158;53.338;6.514;2022-11-18T16:05:58;27.30;;;17.88;;
52180;SDS011;38158;53.338;6.514;2022-11-18T16:08:24;24.60;;;17.30;;
52180;SDS011;38158;53.338;6.514;2022-11-18T16:10:58;26.27;;;16.70;;
52180;SDS011;38158;53.338;6.514;2022-11-18T16:13:43;27.83;;;18.52;;
52180;SDS011;38158;53.338;6.514;2022-11-18T16:16:22;25.63;;;17.40;;
52180;SDS011;38158;53.338;6.514;2022-11-18T16:18:52;26.63;;;18.33;;
52180;SDS011;38158;53.338;6.514;2022-11-18T16:21:22;30.08;;;20.77;;
52180;SDS011;38158;53.338;6.514;2022-11-18T16:23:48;27.45;;;19.42;;
52180;SDS011;38158;53.338;6.514;2022-11-18T16:26:14;26.25;;;18.55;;
52180;SDS011;38158;53.338;6.514;2022-11-18T16:28:39;26.85;;;20.25;;
52180;SDS011;38158;53.338;6.514;2022-11-18T16:31:05;29.40;;;20.13;;
52180;SDS011;38158;53.338;6.514;2022-11-18T16:33:50;29.90;;;20.58;;
52180;SDS011;38158;53.338;6.514;2022-11-18T16:36:15;28.30;;;20.02;;
52180;SDS011;38158;53.338;6.514;2022-11-18T16:38:41;31.33;;;21.95;;
52180;SDS011;38158;53.338;6.514;2022-11-18T16:41:07;30.10;;;21.45;;